This is the latest recevied weather packets stored in our database for station/object N3AVN. If no packets are shown the sender has not sent any weather packets the latest 1 day(s).
| Time | Temp. | Humidity | Pressure | Rain* | Wind** | Luminosity | Snow |
|---|---|---|---|---|---|---|---|
| 1836274749 | 13.89° C | 82% | 1018.3 hPa | 0 mm | 0 m/s | 0 W/m² | - |
| 1836274447 | 13.89° C | 82% | 1018.2 hPa | 0 mm | 0 m/s | 0 W/m² | - |
| 1836274300 | 13.89° C | 82% | 1018.5 hPa | 0 mm | 0 m/s | 0 W/m² | - |
| 1836274145 | 13.89° C | 82% | 1018.2 hPa | 0 mm | 0 m/s | 0 W/m² | - |
| 1778047729 | 16.11° C | 79% | 1007.9 hPa | 0 mm | 1.79 m/s, 54° | 0 W/m² | - |
| 1778047426 | 16.11° C | 79% | 1008.1 hPa | 0 mm | 0 m/s | 0 W/m² | - |
| 1778047123 | 16.11° C | 79% | 1008.2 hPa | 0 mm | 1.34 m/s, 58° | 0 W/m² | - |
| 1778046820 | 16.11° C | 78% | 1008.2 hPa | 0 mm | 1.79 m/s, 74° | 0 W/m² | - |
| 1778046517 | 16.11° C | 78% | 1008.1 hPa | 0 mm | 0.89 m/s, 135° | 0 W/m² | - |
| 1778046214 | 16.11° C | 77% | 1008.2 hPa | 0 mm | 0.89 m/s, 106° | 0 W/m² | - |
| 1778045910 | 16.67° C | 76% | 1008.2 hPa | 0 mm | 2.24 m/s, 134° | 0 W/m² | - |
| 1778045609 | 16.67° C | 76% | 1008.3 hPa | 0 mm | 0.45 m/s, 257° | 0 W/m² | - |
| 1778045307 | 16.67° C | 76% | 1008.2 hPa | 0 mm | 1.34 m/s, 212° | 0 W/m² | - |
| 1778045005 | 16.67° C | 75% | 1008.3 hPa | 0 mm | 2.68 m/s, 233° | 0 W/m² | - |
| 1778044702 | 16.67° C | 75% | 1008.1 hPa | 0 mm | 1.34 m/s, 196° | 0 W/m² | - |
| 1778044398 | 16.67° C | 75% | 1008.1 hPa | 0 mm | 0.89 m/s, 110° | 0 W/m² | - |
| 1778044096 | 16.67° C | 74% | 1008.3 hPa | 0 mm | 0.89 m/s, 14° | 0 W/m² | - |
| 1778043793 | 16.67° C | 74% | 1008.1 hPa | 0 mm | 0 m/s | 0 W/m² | - |
| 1778043490 | 16.67° C | 74% | 1008.3 hPa | 0 mm | 0 m/s | 0 W/m² | - |
| 1778043187 | 16.67° C | 73% | 1008.5 hPa | 0 mm | 1.34 m/s, 180° | 0 W/m² | - |
| 1778042884 | 16.67° C | 73% | 1008.2 hPa | 0 mm | 2.24 m/s, 0° | 0 W/m² | - |
| 1778042581 | 16.67° C | 73% | 1008.3 hPa | 0 mm | 0.45 m/s, 83° | 0 W/m² | - |
| 1778042278 | 17.22° C | 73% | 1008.4 hPa | 0 mm | 1.34 m/s, 198° | 0 W/m² | - |
| 1778041975 | 17.22° C | 73% | 1008.2 hPa | 0 mm | 0.89 m/s, 176° | 0 W/m² | - |
| 1778041674 | 17.22° C | 73% | 1008 hPa | 0 mm | 0.89 m/s, 14° | 0 W/m² | - |
* Rain latest hour (hover to see other rain measurements)
** Current wind speed in m/s (hover to see current wind gust speed)